Nong Khai, Thailand
Current Conditions -  °F | °C
As of 5:00 PM on Saturday 25 Oct 2014 (Local Time) from VLVT Reporting Station
Few Clouds Few Clouds  
Wind Chill: 31°   Ceiling: Unl
Heat Index: 34°   Visibility: 6mi
Dew Point: 22°   Wind: 2mph
Humidity: 58%   Direction: 180°S
Pressure: 29.8"   Gusts: NA
Location:  17.88°N, 102.74°E
Report Text: VLVT 251000Z 18002KT 9999 FEW020 31/22 Q1009 NOSIG
Loading
Personal Weather Stations






























Interactive Weather Map
Tropical Storm Tracking
New forecast layout! Learn more

10-Day Weather Forecast

Advertisements
Track Severe Weather on mobile